sensor_id;sensor_type;location;lat;lon;timestamp;temperature;humidity
17066;DHT22;23120;52.336;21.182;2023-10-19T00:00:48;2.10;99.90
17066;DHT22;23120;52.336;21.182;2023-10-19T00:03:16;2.00;99.90
17066;DHT22;23120;52.336;21.182;2023-10-19T00:05:45;2.00;99.90
17066;DHT22;23120;52.336;21.182;2023-10-19T00:08:12;2.00;99.90
17066;DHT22;23120;52.336;21.182;2023-10-19T00:10:43;1.90;99.90
17066;DHT22;23120;52.336;21.182;2023-10-19T00:13:14;1.90;99.90
17066;DHT22;23120;52.336;21.182;2023-10-19T00:15:41;1.90;99.90
17066;DHT22;23120;52.336;21.182;2023-10-19T00:18:13;1.80;99.90
17066;DHT22;23120;52.336;21.182;2023-10-19T00:20:49;1.80;99.90
17066;DHT22;23120;52.336;21.182;2023-10-19T00:23:18;1.80;99.90
17066;DHT22;23120;52.336;21.182;2023-10-19T00:25:50;1.80;99.90
17066;DHT22;23120;52.336;21.182;2023-10-19T00:28:17;1.70;99.90
17066;DHT22;23120;52.336;21.182;2023-10-19T00:30:44;1.70;99.90
17066;DHT22;23120;52.336;21.182;2023-10-19T00:33:13;1.70;99.90
17066;DHT22;23120;52.336;21.182;2023-10-19T00:35:44;1.70;99.90
17066;DHT22;23120;52.336;21.182;2023-10-19T00:38:17;1.60;99.90
17066;DHT22;23120;52.336;21.182;2023-10-19T00:40:53;1.50;99.90
17066;DHT22;23120;52.336;21.182;2023-10-19T00:43:28;1.50;99.90
17066;DHT22;23120;52.336;21.182;2023-10-19T00:45:59;1.50;99.90
17066;DHT22;23120;52.336;21.182;2023-10-19T00:48:28;1.50;99.90
17066;DHT22;23120;52.336;21.182;2023-10-19T00:50:58;1.50;99.90
17066;DHT22;23120;52.336;21.182;2023-10-19T00:53:37;1.40;99.90
17066;DHT22;23120;52.336;21.182;2023-10-19T00:56:06;1.40;99.90
17066;DHT22;23120;52.336;21.182;2023-10-19T00:58:36;1.40;99.90
17066;DHT22;23120;52.336;21.182;2023-10-19T01:01:06;1.40;99.90
17066;DHT22;23120;52.336;21.182;2023-10-19T01:03:35;1.40;99.90
17066;DHT22;23120;52.336;21.182;2023-10-19T01:06:06;1.30;99.90
17066;DHT22;23120;52.336;21.182;2023-10-19T01:08:38;1.30;99.90
17066;DHT22;23120;52.336;21.182;2023-10-19T01:11:11;1.30;99.90
17066;DHT22;23120;52.336;21.182;2023-10-19T01:13:41;1.30;99.90
17066;DHT22;23120;52.336;21.182;2023-10-19T01:16:13;1.20;99.90
17066;DHT22;23120;52.336;21.182;2023-10-19T01:18:48;1.20;99.90
17066;DHT22;23120;52.336;21.182;2023-10-19T01:21:21;1.20;99.90
17066;DHT22;23120;52.336;21.182;2023-10-19T01:23:52;1.20;99.90
17066;DHT22;23120;52.336;21.182;2023-10-19T01:26:19;1.20;99.90
17066;DHT22;23120;52.336;21.182;2023-10-19T01:28:52;1.10;99.90
17066;DHT22;23120;52.336;21.182;2023-10-19T01:31:24;1.10;99.90
17066;DHT22;23120;52.336;21.182;2023-10-19T01:33:58;1.10;99.90
17066;DHT22;23120;52.336;21.182;2023-10-19T01:36:30;1.00;99.90
17066;DHT22;23120;52.336;21.182;2023-10-19T01:39:04;1.10;99.90
17066;DHT22;23120;52.336;21.182;2023-10-19T01:41:35;1.00;99.90
17066;DHT22;23120;52.336;21.182;2023-10-19T01:44:02;1.10;99.90
17066;DHT22;23120;52.336;21.182;2023-10-19T01:46:30;1.00;99.90
17066;DHT22;23120;52.336;21.182;2023-10-19T01:49:00;1.00;99.90
17066;DHT22;23120;52.336;21.182;2023-10-19T01:51:30;1.00;99.90
17066;DHT22;23120;52.336;21.182;2023-10-19T01:53:59;1.00;99.90
17066;DHT22;23120;52.336;21.182;2023-10-19T01:56:27;1.00;99.90
17066;DHT22;23120;52.336;21.182;2023-10-19T01:58:54;1.00;99.90
17066;DHT22;23120;52.336;21.182;2023-10-19T02:01:23;0.90;99.90
17066;DHT22;23120;52.336;21.182;2023-10-19T02:03:56;1.10;99.90
17066;DHT22;23120;52.336;21.182;2023-10-19T02:06:25;1.20;99.90
17066;DHT22;23120;52.336;21.182;2023-10-19T02:08:55;1.30;99.90
17066;DHT22;23120;52.336;21.182;2023-10-19T02:11:23;1.40;99.90
17066;DHT22;23120;52.336;21.182;2023-10-19T02:13:53;1.50;99.90
17066;DHT22;23120;52.336;21.182;2023-10-19T02:16:20;1.50;99.90
17066;DHT22;23120;52.336;21.182;2023-10-19T02:18:49;1.40;99.90
17066;DHT22;23120;52.336;21.182;2023-10-19T02:21:15;1.50;99.90
17066;DHT22;23120;52.336;21.182;2023-10-19T02:23:47;1.40;99.90
17066;DHT22;23120;52.336;21.182;2023-10-19T02:26:17;1.50;99.90
17066;DHT22;23120;52.336;21.182;2023-10-19T02:28:43;1.50;99.90
17066;DHT22;23120;52.336;21.182;2023-10-19T02:31:11;1.50;99.90
17066;DHT22;23120;52.336;21.182;2023-10-19T02:33:42;1.30;99.90
17066;DHT22;23120;52.336;21.182;2023-10-19T02:36:12;1.30;99.90
17066;DHT22;23120;52.336;21.182;2023-10-19T02:38:39;1.40;99.90
17066;DHT22;23120;52.336;21.182;2023-10-19T02:41:07;1.40;99.90
17066;DHT22;23120;52.336;21.182;2023-10-19T02:43:35;1.50;99.90
17066;DHT22;23120;52.336;21.182;2023-10-19T02:46:03;1.40;99.90
17066;DHT22;23120;52.336;21.182;2023-10-19T02:48:30;1.40;99.90
17066;DHT22;23120;52.336;21.182;2023-10-19T02:50:57;1.40;99.90
17066;DHT22;23120;52.336;21.182;2023-10-19T02:53:32;1.50;99.90
17066;DHT22;23120;52.336;21.182;2023-10-19T02:56:09;1.60;99.90
17066;DHT22;23120;52.336;21.182;2023-10-19T02:58:37;1.50;99.90
17066;DHT22;23120;52.336;21.182;2023-10-19T03:01:12;1.50;99.90
17066;DHT22;23120;52.336;21.182;2023-10-19T03:03:39;1.50;99.90
17066;DHT22;23120;52.336;21.182;2023-10-19T03:06:09;1.40;99.90
17066;DHT22;23120;52.336;21.182;2023-10-19T03:08:35;1.30;99.90
17066;DHT22;23120;52.336;21.182;2023-10-19T03:11:02;1.20;99.90
17066;DHT22;23120;52.336;21.182;2023-10-19T03:13:29;1.20;99.90
17066;DHT22;23120;52.336;21.182;2023-10-19T03:15:58;1.40;99.90
17066;DHT22;23120;52.336;21.182;2023-10-19T03:18:25;1.30;99.90
17066;DHT22;23120;52.336;21.182;2023-10-19T03:20:53;1.20;99.90
17066;DHT22;23120;52.336;21.182;2023-10-19T03:23:19;1.30;99.90
17066;DHT22;23120;52.336;21.182;2023-10-19T03:25:53;1.30;99.90
17066;DHT22;23120;52.336;21.182;2023-10-19T03:28:24;1.30;99.90
17066;DHT22;23120;52.336;21.182;2023-10-19T03:30:51;1.30;99.90
17066;DHT22;23120;52.336;21.182;2023-10-19T03:33:20;1.20;99.90
17066;DHT22;23120;52.336;21.182;2023-10-19T03:35:53;1.20;99.90
17066;DHT22;23120;52.336;21.182;2023-10-19T03:38:20;1.20;99.90
17066;DHT22;23120;52.336;21.182;2023-10-19T03:40:48;1.10;99.90
17066;DHT22;23120;52.336;21.182;2023-10-19T03:43:24;1.10;99.90
17066;DHT22;23120;52.336;21.182;2023-10-19T03:45:53;1.20;99.90
17066;DHT22;23120;52.336;21.182;2023-10-19T03:48:20;1.20;99.90
17066;DHT22;23120;52.336;21.182;2023-10-19T03:50:54;1.10;99.90
17066;DHT22;23120;52.336;21.182;2023-10-19T03:53:21;1.20;99.90
17066;DHT22;23120;52.336;21.182;2023-10-19T03:55:48;1.20;99.90
17066;DHT22;23120;52.336;21.182;2023-10-19T03:58:18;1.20;99.90
17066;DHT22;23120;52.336;21.182;2023-10-19T04:00:47;1.20;99.90
17066;DHT22;23120;52.336;21.182;2023-10-19T04:03:15;1.20;99.90
17066;DHT22;23120;52.336;21.182;2023-10-19T04:05:41;1.30;99.90
17066;DHT22;23120;52.336;21.182;2023-10-19T04:08:13;1.20;99.90
17066;DHT22;23120;52.336;21.182;2023-10-19T04:10:42;1.30;99.90
17066;DHT22;23120;52.336;21.182;2023-10-19T04:13:33;1.20;99.90
17066;DHT22;23120;52.336;21.182;2023-10-19T04:16:00;1.20;99.90
17066;DHT22;23120;52.336;21.182;2023-10-19T04:18:26;1.20;99.90
17066;DHT22;23120;52.336;21.182;2023-10-19T04:20:53;1.20;99.90
17066;DHT22;23120;52.336;21.182;2023-10-19T04:23:25;1.20;99.90
17066;DHT22;23120;52.336;21.182;2023-10-19T04:25:54;1.10;99.90
17066;DHT22;23120;52.336;21.182;2023-10-19T04:28:23;1.10;99.90
17066;DHT22;23120;52.336;21.182;2023-10-19T04:30:57;1.10;99.90
17066;DHT22;23120;52.336;21.182;2023-10-19T04:33:28;1.00;99.90
17066;DHT22;23120;52.336;21.182;2023-10-19T04:35:55;1.00;99.90
17066;DHT22;23120;52.336;21.182;2023-10-19T04:38:27;1.10;99.90
17066;DHT22;23120;52.336;21.182;2023-10-19T04:41:04;1.10;99.90
17066;DHT22;23120;52.336;21.182;2023-10-19T04:43:33;1.10;99.90
17066;DHT22;23120;52.336;21.182;2023-10-19T04:46:04;1.00;99.90
17066;DHT22;23120;52.336;21.182;2023-10-19T04:48:33;1.10;99.90
17066;DHT22;23120;52.336;21.182;2023-10-19T04:51:01;1.10;99.90
17066;DHT22;23120;52.336;21.182;2023-10-19T04:53:31;1.10;99.90
17066;DHT22;23120;52.336;21.182;2023-10-19T04:55:58;1.10;99.90
17066;DHT22;23120;52.336;21.182;2023-10-19T04:58:26;1.00;99.90
17066;DHT22;23120;52.336;21.182;2023-10-19T05:00:54;1.00;99.90
17066;DHT22;23120;52.336;21.182;2023-10-19T05:03:20;1.10;99.90
17066;DHT22;23120;52.336;21.182;2023-10-19T05:05:47;1.20;99.90
17066;DHT22;23120;52.336;21.182;2023-10-19T05:08:14;1.10;99.90
17066;DHT22;23120;52.336;21.182;2023-10-19T05:10:42;1.10;99.90
17066;DHT22;23120;52.336;21.182;2023-10-19T05:13:09;1.10;99.90
17066;DHT22;23120;52.336;21.182;2023-10-19T05:15:36;1.20;99.90
17066;DHT22;23120;52.336;21.182;2023-10-19T05:18:04;1.20;99.90
17066;DHT22;23120;52.336;21.182;2023-10-19T05:20:31;1.10;99.90
17066;DHT22;23120;52.336;21.182;2023-10-19T05:22:58;1.10;99.90
17066;DHT22;23120;52.336;21.182;2023-10-19T05:25:26;1.10;99.90
17066;DHT22;23120;52.336;21.182;2023-10-19T05:27:54;1.10;99.90
17066;DHT22;23120;52.336;21.182;2023-10-19T05:30:21;1.10;99.90
17066;DHT22;23120;52.336;21.182;2023-10-19T05:32:49;1.00;99.90
17066;DHT22;23120;52.336;21.182;2023-10-19T05:35:17;1.10;99.90
17066;DHT22;23120;52.336;21.182;2023-10-19T05:37:49;1.10;99.90
17066;DHT22;23120;52.336;21.182;2023-10-19T05:40:17;1.20;99.90
17066;DHT22;23120;52.336;21.182;2023-10-19T05:42:45;1.20;99.90
17066;DHT22;23120;52.336;21.182;2023-10-19T05:45:15;1.20;99.90
17066;DHT22;23120;52.336;21.182;2023-10-19T05:47:43;1.10;99.90
17066;DHT22;23120;52.336;21.182;2023-10-19T05:50:10;1.20;99.90
17066;DHT22;23120;52.336;21.182;2023-10-19T05:52:51;1.10;99.90
17066;DHT22;23120;52.336;21.182;2023-10-19T05:55:18;1.30;99.90
17066;DHT22;23120;52.336;21.182;2023-10-19T05:57:48;1.20;99.90
17066;DHT22;23120;52.336;21.182;2023-10-19T06:00:16;1.40;99.90
17066;DHT22;23120;52.336;21.182;2023-10-19T06:02:47;1.40;99.90
17066;DHT22;23120;52.336;21.182;2023-10-19T06:05:15;1.50;99.90
17066;DHT22;23120;52.336;21.182;2023-10-19T06:07:43;1.50;99.90
17066;DHT22;23120;52.336;21.182;2023-10-19T06:10:11;1.50;99.90
17066;DHT22;23120;52.336;21.182;2023-10-19T06:12:41;1.40;99.90
17066;DHT22;23120;52.336;21.182;2023-10-19T06:15:09;1.50;99.90
17066;DHT22;23120;52.336;21.182;2023-10-19T06:17:39;1.50;99.90
17066;DHT22;23120;52.336;21.182;2023-10-19T06:20:08;1.60;99.90
17066;DHT22;23120;52.336;21.182;2023-10-19T06:22:46;1.70;99.90
17066;DHT22;23120;52.336;21.182;2023-10-19T06:25:16;1.70;99.90
17066;DHT22;23120;52.336;21.182;2023-10-19T06:27:45;1.60;99.90
17066;DHT22;23120;52.336;21.182;2023-10-19T06:30:13;1.70;99.90
17066;DHT22;23120;52.336;21.182;2023-10-19T06:32:46;1.80;99.90
17066;DHT22;23120;52.336;21.182;2023-10-19T06:35:14;1.90;99.90
17066;DHT22;23120;52.336;21.182;2023-10-19T06:37:41;1.90;99.90
17066;DHT22;23120;52.336;21.182;2023-10-19T06:40:09;2.00;99.90
17066;DHT22;23120;52.336;21.182;2023-10-19T06:42:37;2.00;99.90
17066;DHT22;23120;52.336;21.182;2023-10-19T06:45:04;2.00;99.90
17066;DHT22;23120;52.336;21.182;2023-10-19T06:47:32;2.20;99.90
17066;DHT22;23120;52.336;21.182;2023-10-19T06:50:05;2.30;99.90
17066;DHT22;23120;52.336;21.182;2023-10-19T06:52:36;2.30;99.90
17066;DHT22;23120;52.336;21.182;2023-10-19T06:55:04;2.40;99.90
17066;DHT22;23120;52.336;21.182;2023-10-19T06:57:31;2.50;99.90
17066;DHT22;23120;52.336;21.182;2023-10-19T06:59:58;2.50;99.90
17066;DHT22;23120;52.336;21.182;2023-10-19T07:02:33;2.60;99.90
17066;DHT22;23120;52.336;21.182;2023-10-19T07:04:59;2.70;99.90
17066;DHT22;23120;52.336;21.182;2023-10-19T07:07:28;2.90;99.90
17066;DHT22;23120;52.336;21.182;2023-10-19T07:09:55;3.00;99.90
17066;DHT22;23120;52.336;21.182;2023-10-19T07:12:23;3.10;99.90
17066;DHT22;23120;52.336;21.182;2023-10-19T07:14:49;3.20;99.90
17066;DHT22;23120;52.336;21.182;2023-10-19T07:17:16;3.20;99.90
17066;DHT22;23120;52.336;21.182;2023-10-19T07:19:43;3.30;99.90
17066;DHT22;23120;52.336;21.182;2023-10-19T07:22:14;3.40;99.90
17066;DHT22;23120;52.336;21.182;2023-10-19T07:24:43;3.50;99.90
17066;DHT22;23120;52.336;21.182;2023-10-19T07:27:10;3.60;99.90
17066;DHT22;23120;52.336;21.182;2023-10-19T07:29:44;3.60;99.90
17066;DHT22;23120;52.336;21.182;2023-10-19T07:32:10;3.70;99.90
17066;DHT22;23120;52.336;21.182;2023-10-19T07:34:39;3.90;99.90
17066;DHT22;23120;52.336;21.182;2023-10-19T07:37:06;3.90;99.90
17066;DHT22;23120;52.336;21.182;2023-10-19T07:39:33;4.00;99.90
17066;DHT22;23120;52.336;21.182;2023-10-19T07:42:02;4.10;99.90
17066;DHT22;23120;52.336;21.182;2023-10-19T07:44:32;4.20;99.90
17066;DHT22;23120;52.336;21.182;2023-10-19T07:46:59;4.30;99.90
17066;DHT22;23120;52.336;21.182;2023-10-19T07:49:40;4.40;99.90
17066;DHT22;23120;52.336;21.182;2023-10-19T07:52:08;4.50;99.90
17066;DHT22;23120;52.336;21.182;2023-10-19T07:54:55;4.60;99.90
17066;DHT22;23120;52.336;21.182;2023-10-19T07:57:40;4.70;99.90
17066;DHT22;23120;52.336;21.182;2023-10-19T08:00:22;4.80;99.90
17066;DHT22;23120;52.336;21.182;2023-10-19T08:02:50;4.90;99.90
17066;DHT22;23120;52.336;21.182;2023-10-19T08:05:17;5.10;99.90
17066;DHT22;23120;52.336;21.182;2023-10-19T08:07:45;5.10;99.90
17066;DHT22;23120;52.336;21.182;2023-10-19T08:10:13;5.20;99.90
17066;DHT22;23120;52.336;21.182;2023-10-19T08:12:42;5.40;99.90
17066;DHT22;23120;52.336;21.182;2023-10-19T08:15:11;5.50;99.90
17066;DHT22;23120;52.336;21.182;2023-10-19T08:17:38;5.60;99.90
17066;DHT22;23120;52.336;21.182;2023-10-19T08:20:06;5.60;99.90
17066;DHT22;23120;52.336;21.182;2023-10-19T08:22:37;5.70;99.90
17066;DHT22;23120;52.336;21.182;2023-10-19T08:25:04;5.90;99.90
17066;DHT22;23120;52.336;21.182;2023-10-19T08:27:38;6.00;99.90
17066;DHT22;23120;52.336;21.182;2023-10-19T08:30:07;6.00;99.90
17066;DHT22;23120;52.336;21.182;2023-10-19T08:32:35;6.10;99.90
17066;DHT22;23120;52.336;21.182;2023-10-19T08:35:02;6.20;99.90
17066;DHT22;23120;52.336;21.182;2023-10-19T08:37:29;6.30;99.90
17066;DHT22;23120;52.336;21.182;2023-10-19T08:39:57;6.40;99.90
17066;DHT22;23120;52.336;21.182;2023-10-19T08:42:24;6.50;99.90
17066;DHT22;23120;52.336;21.182;2023-10-19T08:44:51;6.70;99.90
17066;DHT22;23120;52.336;21.182;2023-10-19T08:47:20;6.70;99.90
17066;DHT22;23120;52.336;21.182;2023-10-19T08:49:46;6.70;99.90
17066;DHT22;23120;52.336;21.182;2023-10-19T08:52:14;6.80;99.90
17066;DHT22;23120;52.336;21.182;2023-10-19T08:54:42;6.90;99.90
17066;DHT22;23120;52.336;21.182;2023-10-19T08:57:09;7.00;99.90
17066;DHT22;23120;52.336;21.182;2023-10-19T08:59:36;7.10;99.90
17066;DHT22;23120;52.336;21.182;2023-10-19T09:02:04;7.20;99.90
17066;DHT22;23120;52.336;21.182;2023-10-19T09:04:41;7.40;99.90
17066;DHT22;23120;52.336;21.182;2023-10-19T09:07:08;7.50;99.90
17066;DHT22;23120;52.336;21.182;2023-10-19T09:09:36;7.60;99.90
17066;DHT22;23120;52.336;21.182;2023-10-19T09:12:06;7.80;99.90
17066;DHT22;23120;52.336;21.182;2023-10-19T09:46:53;22.40;99.90
17066;DHT22;23120;52.336;21.182;2023-10-19T09:49:24;22.00;99.90
17066;DHT22;23120;52.336;21.182;2023-10-19T09:51:51;22.00;99.90
17066;DHT22;23120;52.336;21.182;2023-10-19T09:57:56;23.30;99.90
17066;DHT22;23120;52.336;21.182;2023-10-19T10:00:25;22.70;99.90
17066;DHT22;23120;52.336;21.182;2023-10-19T10:02:57;22.40;99.90
17066;DHT22;23120;52.336;21.182;2023-10-19T10:05:44;22.20;99.90
17066;DHT22;23120;52.336;21.182;2023-10-19T10:08:30;22.00;99.90
17066;DHT22;23120;52.336;21.182;2023-10-19T10:10:58;21.80;99.90
17066;DHT22;23120;52.336;21.182;2023-10-19T10:13:39;21.70;99.90
17066;DHT22;23120;52.336;21.182;2023-10-19T10:16:07;21.60;99.90
17066;DHT22;23120;52.336;21.182;2023-10-19T10:18:35;21.60;99.90
17066;DHT22;23120;52.336;21.182;2023-10-19T10:21:05;21.70;99.90
17066;DHT22;23120;52.336;21.182;2023-10-19T10:23:40;21.60;99.90
17066;DHT22;23120;52.336;21.182;2023-10-19T10:26:08;21.60;99.90
17066;DHT22;23120;52.336;21.182;2023-10-19T11:08:47;22.30;99.90
17066;DHT22;23120;52.336;21.182;2023-10-19T11:11:14;22.80;99.90
17066;DHT22;23120;52.336;21.182;2023-10-19T11:13:41;23.10;99.90
17066;DHT22;23120;52.336;21.182;2023-10-19T11:16:09;23.20;99.90
17066;DHT22;23120;52.336;21.182;2023-10-19T11:18:37;23.30;99.90
17066;DHT22;23120;52.336;21.182;2023-10-19T11:21:07;23.30;99.90
17066;DHT22;23120;52.336;21.182;2023-10-19T11:23:36;23.20;99.90
17066;DHT22;23120;52.336;21.182;2023-10-19T11:26:05;23.00;99.90
17066;DHT22;23120;52.336;21.182;2023-10-19T11:28:32;23.10;99.90
17066;DHT22;23120;52.336;21.182;2023-10-19T11:31:18;23.10;99.90
17066;DHT22;23120;52.336;21.182;2023-10-19T11:33:45;23.10;99.90
17066;DHT22;23120;52.336;21.182;2023-10-19T11:36:15;23.20;99.90
17066;DHT22;23120;52.336;21.182;2023-10-19T11:38:43;23.10;99.90
17066;DHT22;23120;52.336;21.182;2023-10-19T11:41:12;23.10;99.90
17066;DHT22;23120;52.336;21.182;2023-10-19T11:43:39;23.10;99.90
17066;DHT22;23120;52.336;21.182;2023-10-19T11:46:06;23.20;99.90
17066;DHT22;23120;52.336;21.182;2023-10-19T11:48:34;23.20;99.90
17066;DHT22;23120;52.336;21.182;2023-10-19T11:51:01;23.20;99.90
17066;DHT22;23120;52.336;21.182;2023-10-19T11:53:33;23.20;99.90
17066;DHT22;23120;52.336;21.182;2023-10-19T11:58:31;23.40;99.90
17066;DHT22;23120;52.336;21.182;2023-10-19T12:00:58;23.40;99.90
17066;DHT22;23120;52.336;21.182;2023-10-19T12:03:25;23.40;99.90
17066;DHT22;23120;52.336;21.182;2023-10-19T12:05:52;23.50;99.90
17066;DHT22;23120;52.336;21.182;2023-10-19T12:08:21;23.50;99.90
17066;DHT22;23120;52.336;21.182;2023-10-19T12:10:48;23.50;99.90
17066;DHT22;23120;52.336;21.182;2023-10-19T12:13:15;23.40;99.90
17066;DHT22;23120;52.336;21.182;2023-10-19T12:15:43;23.30;99.90
17066;DHT22;23120;52.336;21.182;2023-10-19T12:18:18;23.20;99.90
17066;DHT22;23120;52.336;21.182;2023-10-19T12:20:45;23.00;99.90
17066;DHT22;23120;52.336;21.182;2023-10-19T12:23:13;23.00;99.90
17066;DHT22;23120;52.336;21.182;2023-10-19T12:25:40;22.90;99.90
17066;DHT22;23120;52.336;21.182;2023-10-19T12:28:08;22.80;99.90
17066;DHT22;23120;52.336;21.182;2023-10-19T12:30:40;22.70;99.90
17066;DHT22;23120;52.336;21.182;2023-10-19T12:33:09;22.60;99.90
17066;DHT22;23120;52.336;21.182;2023-10-19T12:35:38;22.50;99.90
17066;DHT22;23120;52.336;21.182;2023-10-19T12:38:15;22.50;99.90
17066;DHT22;23120;52.336;21.182;2023-10-19T12:40:43;22.40;99.90
17066;DHT22;23120;52.336;21.182;2023-10-19T12:43:12;22.40;99.90
17066;DHT22;23120;52.336;21.182;2023-10-19T12:45:39;22.30;99.90
17066;DHT22;23120;52.336;21.182;2023-10-19T12:48:08;22.30;99.90
17066;DHT22;23120;52.336;21.182;2023-10-19T12:50:37;22.30;99.90
17066;DHT22;23120;52.336;21.182;2023-10-19T12:53:03;22.20;99.90
17066;DHT22;23120;52.336;21.182;2023-10-19T12:55:32;22.20;99.90
17066;DHT22;23120;52.336;21.182;2023-10-19T12:58:00;22.10;99.90
17066;DHT22;23120;52.336;21.182;2023-10-19T13:00:33;22.10;99.90
17066;DHT22;23120;52.336;21.182;2023-10-19T13:03:09;22.10;99.90
17066;DHT22;23120;52.336;21.182;2023-10-19T13:05:39;22.10;99.90
17066;DHT22;23120;52.336;21.182;2023-10-19T13:08:07;22.10;99.90
17066;DHT22;23120;52.336;21.182;2023-10-19T13:10:35;22.10;99.90
17066;DHT22;23120;52.336;21.182;2023-10-19T13:13:04;22.00;99.90
17066;DHT22;23120;52.336;21.182;2023-10-19T13:15:33;22.00;99.90
17066;DHT22;23120;52.336;21.182;2023-10-19T13:18:01;22.00;99.90
17066;DHT22;23120;52.336;21.182;2023-10-19T13:20:30;21.90;99.90
17066;DHT22;23120;52.336;21.182;2023-10-19T13:23:00;22.00;99.90
17066;DHT22;23120;52.336;21.182;2023-10-19T13:25:29;21.90;99.90
17066;DHT22;23120;52.336;21.182;2023-10-19T13:28:11;21.90;99.90
17066;DHT22;23120;52.336;21.182;2023-10-19T13:30:39;21.90;99.90
17066;DHT22;23120;52.336;21.182;2023-10-19T13:33:06;21.80;99.90
17066;DHT22;23120;52.336;21.182;2023-10-19T13:35:36;21.80;99.90
17066;DHT22;23120;52.336;21.182;2023-10-19T13:38:04;21.80;99.90
17066;DHT22;23120;52.336;21.182;2023-10-19T13:40:32;21.70;99.90
17066;DHT22;23120;52.336;21.182;2023-10-19T13:42:59;21.80;99.90
17066;DHT22;23120;52.336;21.182;2023-10-19T13:45:37;21.70;99.90
17066;DHT22;23120;52.336;21.182;2023-10-19T13:48:05;21.70;99.90
17066;DHT22;23120;52.336;21.182;2023-10-19T13:50:33;21.70;99.90
17066;DHT22;23120;52.336;21.182;2023-10-19T13:53:02;21.60;99.90
17066;DHT22;23120;52.336;21.182;2023-10-19T13:55:30;21.70;99.90
17066;DHT22;23120;52.336;21.182;2023-10-19T13:57:59;21.70;99.90
17066;DHT22;23120;52.336;21.182;2023-10-19T14:00:27;21.70;99.90
17066;DHT22;23120;52.336;21.182;2023-10-19T14:03:01;21.70;99.90
17066;DHT22;23120;52.336;21.182;2023-10-19T14:05:35;21.70;99.90
17066;DHT22;23120;52.336;21.182;2023-10-19T14:08:04;21.80;99.90
17066;DHT22;23120;52.336;21.182;2023-10-19T14:10:31;21.80;99.90
17066;DHT22;23120;52.336;21.182;2023-10-19T14:12:57;21.80;99.90
17066;DHT22;23120;52.336;21.182;2023-10-19T14:15:24;21.90;99.90
17066;DHT22;23120;52.336;21.182;2023-10-19T14:17:55;21.80;99.90
17066;DHT22;23120;52.336;21.182;2023-10-19T14:20:24;21.90;99.90
17066;DHT22;23120;52.336;21.182;2023-10-19T14:22:51;21.90;99.90
17066;DHT22;23120;52.336;21.182;2023-10-19T14:25:20;22.00;99.90
17066;DHT22;23120;52.336;21.182;2023-10-19T14:27:49;22.00;99.90
17066;DHT22;23120;52.336;21.182;2023-10-19T14:30:21;22.00;99.90
17066;DHT22;23120;52.336;21.182;2023-10-19T14:32:48;21.90;99.90
17066;DHT22;23120;52.336;21.182;2023-10-19T14:35:16;22.00;99.90
17066;DHT22;23120;52.336;21.182;2023-10-19T14:37:45;22.00;99.90
17066;DHT22;23120;52.336;21.182;2023-10-19T14:40:15;22.00;99.90
17066;DHT22;23120;52.336;21.182;2023-10-19T14:42:44;22.00;99.90
17066;DHT22;23120;52.336;21.182;2023-10-19T14:45:12;22.10;99.90
17066;DHT22;23120;52.336;21.182;2023-10-19T14:47:40;22.00;99.90
17066;DHT22;23120;52.336;21.182;2023-10-19T14:50:10;22.10;99.90
17066;DHT22;23120;52.336;21.182;2023-10-19T14:52:39;22.00;99.90
17066;DHT22;23120;52.336;21.182;2023-10-19T14:55:07;22.00;99.90
17066;DHT22;23120;52.336;21.182;2023-10-19T14:57:39;22.10;99.90
17066;DHT22;23120;52.336;21.182;2023-10-19T15:00:11;22.10;99.90
17066;DHT22;23120;52.336;21.182;2023-10-19T15:02:42;22.10;99.90
17066;DHT22;23120;52.336;21.182;2023-10-19T15:05:10;22.00;99.90
17066;DHT22;23120;52.336;21.182;2023-10-19T15:07:40;22.00;99.90
17066;DHT22;23120;52.336;21.182;2023-10-19T15:10:09;22.00;99.90
17066;DHT22;23120;52.336;21.182;2023-10-19T15:12:38;22.00;99.90
17066;DHT22;23120;52.336;21.182;2023-10-19T15:15:05;22.00;99.90
17066;DHT22;23120;52.336;21.182;2023-10-19T15:17:34;22.00;99.90
17066;DHT22;23120;52.336;21.182;2023-10-19T15:20:04;21.90;99.90
17066;DHT22;23120;52.336;21.182;2023-10-19T15:22:31;22.00;99.90
17066;DHT22;23120;52.336;21.182;2023-10-19T15:24:58;22.00;99.90
17066;DHT22;23120;52.336;21.182;2023-10-19T15:27:25;22.00;99.90
17066;DHT22;23120;52.336;21.182;2023-10-19T15:29:55;22.00;99.90
17066;DHT22;23120;52.336;21.182;2023-10-19T15:32:22;21.90;99.90
17066;DHT22;23120;52.336;21.182;2023-10-19T15:34:50;21.90;99.90
17066;DHT22;23120;52.336;21.182;2023-10-19T15:37:17;21.90;99.90
17066;DHT22;23120;52.336;21.182;2023-10-19T15:39:44;21.90;99.90
17066;DHT22;23120;52.336;21.182;2023-10-19T15:42:10;21.90;99.90
17066;DHT22;23120;52.336;21.182;2023-10-19T15:44:37;21.90;99.90
17066;DHT22;23120;52.336;21.182;2023-10-19T15:47:04;21.90;99.90
17066;DHT22;23120;52.336;21.182;2023-10-19T15:49:35;21.90;99.90
17066;DHT22;23120;52.336;21.182;2023-10-19T15:52:04;21.80;99.90
17066;DHT22;23120;52.336;21.182;2023-10-19T15:54:30;21.80;99.90
17066;DHT22;23120;52.336;21.182;2023-10-19T15:56:57;21.80;99.90
17066;DHT22;23120;52.336;21.182;2023-10-19T15:59:25;21.80;99.90
17066;DHT22;23120;52.336;21.182;2023-10-19T16:01:52;21.80;99.90
17066;DHT22;23120;52.336;21.182;2023-10-19T16:04:21;21.80;99.90
17066;DHT22;23120;52.336;21.182;2023-10-19T16:06:48;21.80;99.90
17066;DHT22;23120;52.336;21.182;2023-10-19T16:09:16;21.70;99.90
17066;DHT22;23120;52.336;21.182;2023-10-19T16:11:45;21.80;99.90
17066;DHT22;23120;52.336;21.182;2023-10-19T16:14:13;21.80;99.90
17066;DHT22;23120;52.336;21.182;2023-10-19T16:16:40;21.80;99.90
17066;DHT22;23120;52.336;21.182;2023-10-19T16:19:07;21.90;99.90
17066;DHT22;23120;52.336;21.182;2023-10-19T16:21:34;21.80;95.30
17066;DHT22;23120;52.336;21.182;2023-10-19T16:24:02;21.70;90.30
17066;DHT22;23120;52.336;21.182;2023-10-19T16:26:31;21.60;89.50
17066;DHT22;23120;52.336;21.182;2023-10-19T16:28:57;21.60;89.30
17066;DHT22;23120;52.336;21.182;2023-10-19T16:31:24;21.50;91.00
17066;DHT22;23120;52.336;21.182;2023-10-19T16:33:51;21.50;93.40
17066;DHT22;23120;52.336;21.182;2023-10-19T16:36:19;21.50;95.50
17066;DHT22;23120;52.336;21.182;2023-10-19T16:38:45;21.50;95.90
17066;DHT22;23120;52.336;21.182;2023-10-19T16:41:12;21.50;96.60
17066;DHT22;23120;52.336;21.182;2023-10-19T16:43:40;21.50;96.90
17066;DHT22;23120;52.336;21.182;2023-10-19T16:46:07;21.60;97.40
17066;DHT22;23120;52.336;21.182;2023-10-19T16:48:34;21.60;97.40
17066;DHT22;23120;52.336;21.182;2023-10-19T16:51:01;21.60;97.40
17066;DHT22;23120;52.336;21.182;2023-10-19T16:53:28;21.60;97.40
17066;DHT22;23120;52.336;21.182;2023-10-19T16:55:57;21.50;97.30